Airport View

Enter AWOS ICAO identifier for current METAR.

ex. KFNL

KANQ 120535Z AUTO 00000KT 9SM M11/M12 A3052 RMK AO2

12 Dec 2019 05:33

Frequency: 118.175

Phone: 260-668-5630

Other Area AWOS: KC62 - KOEB - KIRS - KGWB

TAF KFWA 112323Z 1200/1224 26004KT P6SM SCT250 FM120300 11004KT P6SM BKN250 FM121500 17011G19KT P6SM BKN250 FM122300 18011G20KT P6SM BKN250